Terminal Aerodrome Forecast
Issued by NWS Duluth, MN

Home | Current Version | Previous Version | Text Only | Print | Product List | Glossary On
Versions: 1 2 3 4 5 6 7 8 9 10 11 12 13 14
000
FTUS43 KDLH 030500
TAFINL
TAF
KINL 030520Z 0306/0406 VRB04KT P6SM VCSH BKN120
     FM031400 30012G22KT P6SM BKN100
     FM032000 29013G25KT P6SM SKC
     FM040100 29009KT P6SM FEW050=

USA.gov is the U.S. government's official web portal to all federal, state and local government web resources and services.